Time;durP1;ratioP1;P1;durP2;ratioP2;P2;SDS_P1;SDS_P2;PMS_P1;PMS_P2;Temp;Humidity;BMP_temperature;BMP_pressure;BME280_temperature;BME280_humidity;BME280_pressure;Samples;Min_cycle;Max_cycle;Signal;HPM_P1;HPM_P2
2022/12/19 00:01:27;;;;;;;13.13;9.77;;;;;;;;;;4996407;28;20149;-82
2022/12/19 00:04:01;;;;;;;22.10;20.05;;;;;;;;;;4995721;28;20117;-83
2022/12/19 00:06:35;;;;;;;27.73;25.42;;;;;;;;;;4984116;28;20042;-82
2022/12/19 00:09:02;;;;;;;15.68;10.43;;;;;;;;;;4985626;28;20054;-83
2022/12/19 00:11:30;;;;;;;12.63;9.45;;;;;;;;;;4999916;28;20098;-83
2022/12/19 00:13:57;;;;;;;26.55;24.33;;;;;;;;;;5001707;28;20053;-82
2022/12/19 00:16:26;;;;;;;13.35;10.88;;;;;;;;;;4999050;28;20054;-83
2022/12/19 00:18:55;;;;;;;18.02;12.98;;;;;;;;;;5001047;28;20060;-83
2022/12/19 00:21:24;;;;;;;17.65;8.80;;;;;;;;;;4996629;28;20406;-83
2022/12/19 00:23:51;;;;;;;14.05;12.68;;;;;;;;;;4999524;28;20038;-82
2022/12/19 00:26:20;;;;;;;16.63;15.02;;;;;;;;;;4978703;28;20460;-83
2022/12/19 00:28:50;;;;;;;18.30;16.58;;;;;;;;;;4996689;28;20379;-82
2022/12/19 00:31:18;;;;;;;17.48;15.80;;;;;;;;;;4990513;28;20268;-82
2022/12/19 00:33:46;;;;;;;16.05;9.77;;;;;;;;;;4998417;28;20046;-82
2022/12/19 00:36:14;;;;;;;14.65;11.82;;;;;;;;;;4976272;28;20108;-81
2022/12/19 00:38:50;;;;;;;17.60;10.23;;;;;;;;;;4974676;28;20137;-81
2022/12/19 00:41:19;;;;;;;17.90;10.88;;;;;;;;;;4997584;28;20062;-82
2022/12/19 00:43:47;;;;;;;16.70;15.00;;;;;;;;;;4984051;28;20053;-81
2022/12/19 00:46:15;;;;;;;18.15;9.90;;;;;;;;;;4998361;28;20046;-81
2022/12/19 00:48:42;;;;;;;12.57;8.45;;;;;;;;;;5001414;28;20529;-81
2022/12/19 00:51:11;;;;;;;15.40;9.68;;;;;;;;;;5002197;28;20069;-80
2022/12/19 00:53:41;;;;;;;15.98;9.63;;;;;;;;;;5010615;28;20077;-81
2022/12/19 00:56:13;;;;;;;17.33;10.10;;;;;;;;;;5010640;28;20046;-82
2022/12/19 00:58:41;;;;;;;15.88;11.25;;;;;;;;;;5008803;28;20046;-82
2022/12/19 01:01:33;;;;;;;14.60;9.77;;;;;;;;;;4994844;28;20073;-82
2022/12/19 01:04:02;;;;;;;15.50;9.95;;;;;;;;;;4978623;28;20513;-81
2022/12/19 01:06:50;;;;;;;20.27;11.20;;;;;;;;;;4989794;28;20046;-82
2022/12/19 01:09:20;;;;;;;20.63;10.98;;;;;;;;;;4990928;28;20054;-82
2022/12/19 01:14:35;;;;;;;19.60;10.75;;;;;;;;;;4992780;28;20078;-82
2022/12/19 01:17:02;;;;;;;19.02;10.27;;;;;;;;;;4960374;28;20514;-81
2022/12/19 01:19:29;;;;;;;18.80;9.90;;;;;;;;;;4969682;28;20522;-81
2022/12/19 01:21:57;;;;;;;17.80;9.93;;;;;;;;;;4973607;28;20051;-81
2022/12/19 01:24:25;;;;;;;16.25;9.65;;;;;;;;;;5006675;28;20053;-81
2022/12/19 01:26:52;;;;;;;15.18;10.23;;;;;;;;;;4985931;28;20046;-81
2022/12/19 01:29:20;;;;;;;16.40;9.45;;;;;;;;;;4961542;28;20081;-81
2022/12/19 01:31:47;;;;;;;18.17;10.52;;;;;;;;;;4975006;28;20754;-81
2022/12/19 01:34:16;;;;;;;20.92;11.25;;;;;;;;;;4976639;28;20066;-83
2022/12/19 01:45:07;;;;;;;17.75;10.25;;;;;;;;;;4985472;28;20174;-82
2022/12/19 01:47:40;;;;;;;15.00;8.65;;;;;;;;;;4971681;28;20066;-82
2022/12/19 01:50:11;;;;;;;18.25;9.40;;;;;;;;;;4973902;28;20446;-81
2022/12/19 01:52:42;;;;;;;18.88;10.95;;;;;;;;;;5005677;23;20052;-80
2022/12/19 01:55:10;;;;;;;21.15;11.70;;;;;;;;;;5008016;28;20074;-80
2022/12/19 01:57:38;;;;;;;19.77;11.15;;;;;;;;;;5008917;28;20163;-80
2022/12/19 02:00:08;;;;;;;15.23;9.77;;;;;;;;;;5015976;28;20052;-80
2022/12/19 02:02:46;;;;;;;17.23;10.40;;;;;;;;;;5017582;28;20108;-81
2022/12/19 02:05:15;;;;;;;19.25;11.18;;;;;;;;;;5015450;28;20517;-80
2022/12/19 02:07:43;;;;;;;16.77;10.05;;;;;;;;;;5008341;28;20669;-82
2022/12/19 02:10:10;;;;;;;16.83;9.30;;;;;;;;;;5009621;28;20049;-82
2022/12/19 02:12:39;;;;;;;18.00;9.43;;;;;;;;;;4992173;28;20045;-82
2022/12/19 02:15:09;;;;;;;17.20;10.02;;;;;;;;;;4996137;28;20111;-81
2022/12/19 02:17:40;;;;;;;19.73;10.63;;;;;;;;;;4991242;28;20095;-81
2022/12/19 02:20:41;;;;;;;26.33;23.88;;;;;;;;;;4994274;28;20030;-80
2022/12/19 02:23:08;;;;;;;18.83;12.00;;;;;;;;;;4964310;28;20046;-81
2022/12/19 02:25:47;;;;;;;18.38;10.40;;;;;;;;;;5008910;28;20501;-82
2022/12/19 02:28:29;;;;;;;13.52;8.88;;;;;;;;;;5006376;28;20038;-83
2022/12/19 02:30:57;;;;;;;;;;;;;;;;;;4988195;28;20049;-83
2022/12/19 02:33:34;;;;;;;17.83;9.77;;;;;;;;;;4987256;28;20031;-81
2022/12/19 02:36:06;;;;;;;18.23;10.30;;;;;;;;;;5005149;28;20091;-82
2022/12/19 02:38:48;;;;;;;19.52;10.98;;;;;;;;;;5007015;28;20324;-81
2022/12/19 02:41:20;;;;;;;19.73;11.45;;;;;;;;;;5014690;28;20109;-80
2022/12/19 02:43:49;;;;;;;17.13;10.20;;;;;;;;;;4993479;28;20655;-82
2022/12/19 02:46:27;;;;;;;18.38;10.55;;;;;;;;;;5012028;28;20221;-82
2022/12/19 02:48:56;;;;;;;13.10;9.15;;;;;;;;;;5007596;28;20053;-81
2022/12/19 02:51:23;;;;;;;17.27;15.50;;;;;;;;;;4989360;28;20037;-81
2022/12/19 02:53:51;;;;;;;18.10;11.43;;;;;;;;;;4985341;28;20053;-81
2022/12/19 02:56:21;;;;;;;17.05;10.57;;;;;;;;;;4990912;28;20045;-80
2022/12/19 02:59:00;;;;;;;22.35;11.43;;;;;;;;;;5006429;28;20057;-81
2022/12/19 03:01:44;;;;;;;18.48;11.55;;;;;;;;;;5023828;28;20041;-81
2022/12/19 03:04:15;;;;;;;32.75;29.83;;;;;;;;;;5019531;28;20537;-82
2022/12/19 03:06:52;;;;;;;15.73;10.15;;;;;;;;;;5015296;28;20045;-80
2022/12/19 03:09:31;;;;;;;22.90;11.23;;;;;;;;;;5027099;28;20045;-79
2022/12/19 03:12:02;;;;;;;16.48;9.82;;;;;;;;;;5009631;28;20052;-80
2022/12/19 03:14:30;;;;;;;18.10;9.90;;;;;;;;;;4996455;28;20364;-81
2022/12/19 03:17:02;;;;;;;20.15;11.10;;;;;;;;;;4975021;28;20229;-81
2022/12/19 03:19:29;;;;;;;18.17;11.55;;;;;;;;;;5013831;28;20030;-83
2022/12/19 03:21:57;;;;;;;19.92;10.95;;;;;;;;;;4983874;28;20504;-81
2022/12/19 03:24:24;;;;;;;16.63;9.75;;;;;;;;;;5026792;28;20055;-80
2022/12/19 03:26:55;;;;;;;14.30;8.93;;;;;;;;;;5028283;28;20424;-81
2022/12/19 03:29:27;;;;;;;21.05;12.23;;;;;;;;;;4993081;28;20440;-81
2022/12/19 03:31:55;;;;;;;14.10;8.57;;;;;;;;;;5012261;28;20049;-82
2022/12/19 03:34:32;;;;;;;16.95;9.90;;;;;;;;;;4992813;28;20446;-81
2022/12/19 03:37:01;;;;;;;15.05;8.45;;;;;;;;;;5025412;28;20049;-82
2022/12/19 03:39:29;;;;;;;23.20;12.77;;;;;;;;;;5009648;28;20647;-80
2022/12/19 03:44:44;;;;;;;20.65;11.80;;;;;;;;;;5014029;28;20546;-83
2022/12/19 03:47:20;;;;;;;15.80;9.95;;;;;;;;;;5031052;28;20394;-83
2022/12/19 03:49:48;;;;;;;17.67;11.10;;;;;;;;;;5018071;28;20049;-81
2022/12/19 03:52:18;;;;;;;18.85;11.07;;;;;;;;;;5015315;28;20045;-82
2022/12/19 03:55:00;;;;;;;21.40;11.63;;;;;;;;;;5015395;28;20057;-81
2022/12/19 03:57:32;;;;;;;17.42;10.52;;;;;;;;;;5026611;28;20078;-81
2022/12/19 03:59:59;;;;;;;;;;;;;;;;;;5009801;28;20574;-80
2022/12/19 04:02:27;;;;;;;16.58;14.82;;;;;;;;;;5028018;28;20039;-81
2022/12/19 04:04:57;;;;;;;23.02;15.73;;;;;;;;;;4996328;28;20071;-81
2022/12/19 04:07:25;;;;;;;16.52;10.18;;;;;;;;;;4989913;28;20136;-80
2022/12/19 04:09:54;;;;;;;21.67;13.00;;;;;;;;;;5003767;28;20052;-80
2022/12/19 04:12:24;;;;;;;19.33;10.77;;;;;;;;;;5024129;28;20705;-81
2022/12/19 04:14:52;;;;;;;18.60;10.52;;;;;;;;;;4992549;28;20060;-82
2022/12/19 04:17:38;;;;;;;18.92;10.40;;;;;;;;;;5020039;28;20041;-81
2022/12/19 04:20:07;;;;;;;15.32;9.52;;;;;;;;;;4984208;28;20053;-81
2022/12/19 04:22:39;;;;;;;16.10;9.68;;;;;;;;;;5017703;28;20083;-80
2022/12/19 04:25:07;;;;;;;19.08;10.15;;;;;;;;;;4983299;28;20052;-83
2022/12/19 04:27:36;;;;;;;25.90;23.33;;;;;;;;;;5022732;28;20509;-81
2022/12/19 04:30:04;;;;;;;21.60;11.15;;;;;;;;;;4989704;28;20295;-81
2022/12/19 04:32:33;;;;;;;20.48;12.85;;;;;;;;;;5023853;28;20144;-81
2022/12/19 04:35:01;;;;;;;23.27;15.88;;;;;;;;;;5024053;28;20041;-81
2022/12/19 04:37:29;;;;;;;26.75;19.88;;;;;;;;;;4992286;28;20463;-82
2022/12/19 04:39:56;;;;;;;19.15;11.23;;;;;;;;;;5007069;28;20425;-80
2022/12/19 04:42:23;;;;;;;18.90;10.93;;;;;;;;;;4974891;28;20045;-79
2022/12/19 04:44:51;;;;;;;17.73;11.95;;;;;;;;;;4994352;28;20053;-81
2022/12/19 04:47:18;;;;;;;20.83;12.15;;;;;;;;;;5013464;28;20140;-81
2022/12/19 04:49:46;;;;;;;19.27;9.70;;;;;;;;;;5008323;28;20050;-80
2022/12/19 04:52:13;;;;;;;21.17;19.27;;;;;;;;;;4987563;28;20103;-82
2022/12/19 04:54:40;;;;;;;18.92;12.57;;;;;;;;;;5003807;28;20049;-83
2022/12/19 04:57:08;;;;;;;17.73;11.18;;;;;;;;;;4984332;28;20053;-81
2022/12/19 04:59:35;;;;;;;16.02;13.43;;;;;;;;;;5019651;28;20464;-82
2022/12/19 05:02:03;;;;;;;18.42;10.55;;;;;;;;;;5004072;28;20693;-80
2022/12/19 05:04:30;;;;;;;15.43;10.38;;;;;;;;;;5005927;28;20030;-81
2022/12/19 05:06:58;;;;;;;19.88;10.70;;;;;;;;;;4992262;28;20061;-80
2022/12/19 05:09:25;;;;;;;15.90;13.95;;;;;;;;;;4972551;28;20045;-82
2022/12/19 05:11:53;;;;;;;16.40;11.00;;;;;;;;;;5004587;28;20041;-80
2022/12/19 05:14:20;;;;;;;18.23;10.00;;;;;;;;;;5024844;28;20228;-82
2022/12/19 05:16:47;;;;;;;16.33;10.63;;;;;;;;;;5019329;28;20370;-80
2022/12/19 05:19:14;;;;;;;20.65;11.00;;;;;;;;;;4989687;28;20045;-81
2022/12/19 05:21:42;;;;;;;17.70;9.35;;;;;;;;;;5010781;28;20041;-82
2022/12/19 05:24:09;;;;;;;22.75;12.23;;;;;;;;;;5024350;28;20034;-81
2022/12/19 05:26:36;;;;;;;18.48;11.77;;;;;;;;;;4990674;28;20383;-82
2022/12/19 05:29:04;;;;;;;19.75;11.68;;;;;;;;;;5011626;28;20084;-81
2022/12/19 05:31:33;;;;;;;19.05;11.95;;;;;;;;;;4996714;28;20060;-83
2022/12/19 05:34:00;;;;;;;23.77;14.75;;;;;;;;;;5017090;28;20049;-81
2022/12/19 05:36:28;;;;;;;19.88;12.55;;;;;;;;;;4985620;28;20059;-81
2022/12/19 05:38:59;;;;;;;25.45;13.27;;;;;;;;;;5024400;28;20056;-82
2022/12/19 05:41:26;;;;;;;20.70;12.23;;;;;;;;;;4970462;28;20132;-81
2022/12/19 05:43:55;;;;;;;26.50;14.45;;;;;;;;;;5007891;28;20366;-82
2022/12/19 05:46:23;;;;;;;18.38;11.88;;;;;;;;;;5024235;28;20038;-81
2022/12/19 05:48:51;;;;;;;19.40;11.00;;;;;;;;;;5018527;28;20529;-80
2022/12/19 05:51:19;;;;;;;18.98;11.85;;;;;;;;;;4990725;28;20049;-82
2022/12/19 05:53:49;;;;;;;15.55;9.70;;;;;;;;;;5004002;28;20048;-80
2022/12/19 05:56:18;;;;;;;21.45;14.52;;;;;;;;;;5020771;28;20532;-81
2022/12/19 05:58:46;;;;;;;20.17;11.07;;;;;;;;;;5008320;28;20073;-80
2022/12/19 06:01:15;;;;;;;20.58;12.07;;;;;;;;;;5001689;28;20053;-81
2022/12/19 06:03:43;;;;;;;22.77;12.25;;;;;;;;;;5004423;28;20045;-81
2022/12/19 06:06:12;;;;;;;22.00;12.15;;;;;;;;;;5008191;28;20052;-81
2022/12/19 06:08:40;;;;;;;23.75;13.05;;;;;;;;;;4988099;28;20460;-82
2022/12/19 06:11:08;;;;;;;24.00;13.77;;;;;;;;;;5003143;28;20227;-82
2022/12/19 06:13:36;;;;;;;23.45;13.20;;;;;;;;;;4990706;28;20045;-80
2022/12/19 06:16:09;;;;;;;27.73;13.65;;;;;;;;;;5010411;28;20509;-80
2022/12/19 06:18:37;;;;;;;23.52;15.10;;;;;;;;;;4992178;28;20069;-81
2022/12/19 06:21:13;;;;;;;28.13;13.95;;;;;;;;;;5009281;28;20054;-82
2022/12/19 06:23:41;;;;;;;15.75;11.45;;;;;;;;;;4992272;28;20053;-80
2022/12/19 06:26:10;;;;;;;19.02;10.77;;;;;;;;;;5024455;28;20045;-82
2022/12/19 06:28:45;;;;;;;19.52;12.02;;;;;;;;;;4988069;28;20055;-81
2022/12/19 06:31:12;;;;;;;17.10;10.98;;;;;;;;;;5008185;28;20631;-81
2022/12/19 06:33:40;;;;;;;19.67;12.45;;;;;;;;;;4992123;28;20062;-82
2022/12/19 06:36:13;;;;;;;18.45;11.95;;;;;;;;;;5009290;28;20465;-84
2022/12/19 06:38:41;;;;;;;22.40;12.13;;;;;;;;;;4992354;28;20102;-83
2022/12/19 06:43:59;;;;;;;17.65;14.60;;;;;;;;;;5008117;28;20047;-83
2022/12/19 06:46:26;;;;;;;28.15;25.27;;;;;;;;;;4990563;28;20069;-81
2022/12/19 06:48:54;;;;;;;21.38;12.45;;;;;;;;;;4993027;28;20052;-82
2022/12/19 06:51:21;;;;;;;26.05;15.15;;;;;;;;;;5006162;28;20171;-83
2022/12/19 06:53:49;;;;;;;23.85;16.92;;;;;;;;;;4989596;28;20070;-81
2022/12/19 06:56:36;;;;;;;21.05;11.75;;;;;;;;;;4988366;28;20482;-83
2022/12/19 06:59:04;;;;;;;23.10;12.68;;;;;;;;;;4990683;28;20045;-83
2022/12/19 07:01:56;;;;;;;25.88;12.77;;;;;;;;;;4979771;28;20052;-82
2022/12/19 07:04:38;;;;;;;17.77;13.63;;;;;;;;;;5009176;28;20038;-83
2022/12/19 07:07:07;;;;;;;22.67;13.82;;;;;;;;;;5026018;28;20124;-79
2022/12/19 07:09:44;;;;;;;22.52;12.80;;;;;;;;;;5016115;28;20052;-83
2022/12/19 07:12:12;;;;;;;21.08;13.35;;;;;;;;;;5013606;28;20048;-82
2022/12/19 07:14:39;;;;;;;24.80;13.55;;;;;;;;;;5010894;28;20101;-81
2022/12/19 07:17:06;;;;;;;35.75;32.03;;;;;;;;;;4989398;28;20159;-82
2022/12/19 07:19:34;;;;;;;56.80;50.72;;;;;;;;;;5017215;28;20054;-80
2022/12/19 07:22:02;;;;;;;26.33;16.25;;;;;;;;;;5011352;28;20068;-81
2022/12/19 07:24:30;;;;;;;26.15;14.50;;;;;;;;;;5000780;28;20046;-81
2022/12/19 07:26:58;;;;;;;77.63;70.80;;;;;;;;;;4983786;28;20041;-82
2022/12/19 07:29:25;;;;;;;20.85;12.00;;;;;;;;;;4997620;28;20760;-81
2022/12/19 07:31:53;;;;;;;21.25;13.30;;;;;;;;;;4988868;28;20405;-81
2022/12/19 07:34:20;;;;;;;20.05;12.27;;;;;;;;;;5020229;28;20503;-81
2022/12/19 07:36:50;;;;;;;19.00;13.82;;;;;;;;;;5006011;28;20052;-83
2022/12/19 07:39:18;;;;;;;29.58;22.02;;;;;;;;;;4996330;28;20053;-82
2022/12/19 07:41:45;;;;;;;22.90;14.60;;;;;;;;;;5005633;28;20052;-84
2022/12/19 07:44:15;;;;;;;21.10;16.85;;;;;;;;;;4976232;28;20497;-82
2022/12/19 07:46:45;;;;;;;24.33;21.50;;;;;;;;;;5009300;28;20037;-83
2022/12/19 07:49:12;;;;;;;18.38;10.38;;;;;;;;;;4991616;28;20440;-81
2022/12/19 07:51:46;;;;;;;23.60;11.70;;;;;;;;;;4975448;28;20091;-82
2022/12/19 07:57:11;;;;;;;20.30;14.80;;;;;;;;;;4926655;29;20154;-83
2022/12/19 07:59:38;;;;;;;17.20;10.90;;;;;;;;;;4925945;29;20073;-82
2022/12/19 08:02:06;;;;;;;23.63;12.82;;;;;;;;;;4907643;29;20047;-82
2022/12/19 08:04:34;;;;;;;20.30;11.07;;;;;;;;;;4947459;28;20538;-82
2022/12/19 08:07:01;;;;;;;27.17;15.57;;;;;;;;;;4949362;28;20407;-82
2022/12/19 08:09:29;;;;;;;14.88;10.00;;;;;;;;;;4932293;28;20047;-81
2022/12/19 08:11:58;;;;;;;25.15;16.73;;;;;;;;;;4947209;28;20055;-82
2022/12/19 08:14:25;;;;;;;26.27;13.23;;;;;;;;;;4950706;28;20047;-82
2022/12/19 08:16:52;;;;;;;18.25;13.27;;;;;;;;;;4939696;28;20043;-81
2022/12/19 08:19:40;;;;;;;24.05;12.38;;;;;;;;;;4945618;28;20058;-81
2022/12/19 08:22:07;;;;;;;27.35;13.77;;;;;;;;;;4923969;29;20062;-81
2022/12/19 08:24:35;;;;;;;20.33;12.68;;;;;;;;;;4944269;28;20119;-81
2022/12/19 08:27:02;;;;;;;20.60;12.80;;;;;;;;;;4932596;29;20048;-81
2022/12/19 08:29:30;;;;;;;24.08;17.25;;;;;;;;;;4949599;28;20051;-81
2022/12/19 08:31:57;;;;;;;29.77;20.35;;;;;;;;;;4923858;29;20051;-82
2022/12/19 08:34:24;;;;;;;22.88;14.18;;;;;;;;;;4933946;28;20059;-82
2022/12/19 08:36:52;;;;;;;26.50;18.05;;;;;;;;;;4961610;28;20125;-81
2022/12/19 08:39:19;;;;;;;26.00;13.73;;;;;;;;;;4944102;28;20031;-81
2022/12/19 08:41:47;;;;;;;24.25;13.50;;;;;;;;;;4925881;29;20069;-80
2022/12/19 08:44:15;;;;;;;23.10;13.20;;;;;;;;;;4940076;28;20049;-82
2022/12/19 08:46:42;;;;;;;26.58;14.95;;;;;;;;;;4943768;28;20087;-81
2022/12/19 08:49:17;;;;;;;23.85;14.02;;;;;;;;;;4956742;28;20051;-82
2022/12/19 08:51:45;;;;;;;24.15;14.30;;;;;;;;;;4917238;29;20055;-81
2022/12/19 08:54:12;;;;;;;22.10;14.00;;;;;;;;;;4955859;28;20050;-81
2022/12/19 08:56:40;;;;;;;28.33;15.20;;;;;;;;;;4950492;29;20528;-81
2022/12/19 08:59:14;;;;;;;26.80;14.88;;;;;;;;;;4915308;29;20082;-83
2022/12/19 09:01:57;;;;;;;23.17;13.40;;;;;;;;;;4944330;28;20126;-81
2022/12/19 09:04:24;;;;;;;27.15;17.33;;;;;;;;;;4944180;28;20051;-81
2022/12/19 09:07:12;;;;;;;26.25;14.85;;;;;;;;;;4948169;28;20417;-82
2022/12/19 09:09:42;;;;;;;24.10;15.32;;;;;;;;;;4939177;29;20377;-83
2022/12/19 09:12:10;;;;;;;23.20;14.30;;;;;;;;;;4946869;28;20076;-82
2022/12/19 09:14:37;;;;;;;30.05;15.88;;;;;;;;;;4948569;29;20044;-82
2022/12/19 09:17:05;;;;;;;28.52;15.48;;;;;;;;;;4926697;29;20114;-81
2022/12/19 09:19:32;;;;;;;29.45;16.25;;;;;;;;;;4945535;29;20497;-83
2022/12/19 09:21:59;;;;;;;27.02;15.55;;;;;;;;;;4947909;28;20050;-81
2022/12/19 09:24:27;;;;;;;31.13;16.25;;;;;;;;;;4943180;29;20070;-82
2022/12/19 09:26:54;;;;;;;25.20;15.13;;;;;;;;;;4933242;29;20109;-82
2022/12/19 09:29:22;;;;;;;24.85;14.75;;;;;;;;;;4952216;28;20139;-80
2022/12/19 09:31:49;;;;;;;22.98;14.15;;;;;;;;;;4940503;28;20066;-81
2022/12/19 09:34:24;;;;;;;27.35;15.55;;;;;;;;;;4948849;29;20138;-82
2022/12/19 09:37:05;;;;;;;35.10;20.60;;;;;;;;;;4945157;29;20053;-81
2022/12/19 09:39:33;;;;;;;27.13;15.68;;;;;;;;;;4929545;29;20057;-80
2022/12/19 09:42:14;;;;;;;29.73;17.13;;;;;;;;;;4949308;28;20039;-80
2022/12/19 09:44:41;;;;;;;31.27;17.75;;;;;;;;;;4947126;29;20047;-82
2022/12/19 09:47:13;;;;;;;24.60;15.65;;;;;;;;;;4935939;29;20051;-81
2022/12/19 09:49:43;;;;;;;20.25;14.38;;;;;;;;;;4931278;29;20584;-81
2022/12/19 09:52:10;;;;;;;27.00;15.82;;;;;;;;;;4948881;29;20054;-81
2022/12/19 09:54:41;;;;;;;24.08;15.27;;;;;;;;;;4926193;29;20042;-81
2022/12/19 09:57:17;;;;;;;23.90;15.15;;;;;;;;;;4944325;29;20055;-82
2022/12/19 09:59:51;;;;;;;30.85;22.98;;;;;;;;;;4920325;29;20046;-80
2022/12/19 10:02:34;;;;;;;27.13;18.52;;;;;;;;;;4913000;29;20062;-81
2022/12/19 10:05:25;;;;;;;26.50;23.70;;;;;;;;;;4925815;29;20079;-80
2022/12/19 10:08:34;;;;;;;26.98;17.60;;;;;;;;;;4951046;29;20035;-80
2022/12/19 10:11:33;;;;;;;24.55;15.13;;;;;;;;;;4947214;28;20047;-81
2022/12/19 10:14:30;;;;;;;26.95;15.18;;;;;;;;;;4918994;29;20047;-81
2022/12/19 10:17:04;;;;;;;27.35;18.35;;;;;;;;;;4917671;29;20055;-81
2022/12/19 10:19:54;;;;;;;23.25;14.73;;;;;;;;;;4959852;28;20089;-81
2022/12/19 10:22:41;;;;;;;23.73;14.57;;;;;;;;;;4941378;28;20125;-80
2022/12/19 10:25:28;;;;;;;20.98;13.68;;;;;;;;;;4947292;28;20129;-81
2022/12/19 10:28:05;;;;;;;22.63;14.10;;;;;;;;;;4939704;28;20062;-80
2022/12/19 10:30:38;;;;;;;22.48;14.60;;;;;;;;;;4944059;28;20220;-81
2022/12/19 10:33:13;;;;;;;23.90;14.55;;;;;;;;;;4953117;28;20071;-81
2022/12/19 10:35:48;;;;;;;27.25;14.70;;;;;;;;;;4932680;29;20051;-81
2022/12/19 10:38:26;;;;;;;22.95;14.27;;;;;;;;;;4933192;29;20066;-81
2022/12/19 10:41:02;;;;;;;21.38;13.38;;;;;;;;;;4931943;28;20062;-80
2022/12/19 10:43:37;;;;;;;26.67;15.05;;;;;;;;;;4947518;29;20055;-81
2022/12/19 10:46:15;;;;;;;27.02;16.45;;;;;;;;;;4946788;29;20123;-80
2022/12/19 10:48:42;;;;;;;24.90;13.95;;;;;;;;;;4932206;29;20054;-81
2022/12/19 10:51:12;;;;;;;23.38;15.43;;;;;;;;;;4930500;29;20114;-81
2022/12/19 10:53:39;;;;;;;23.02;13.70;;;;;;;;;;4949281;28;20241;-81
2022/12/19 10:56:20;;;;;;;28.83;16.38;;;;;;;;;;4947346;29;20456;-82
2022/12/19 10:58:53;;;;;;;22.08;14.43;;;;;;;;;;4929969;29;20408;-80
2022/12/19 11:01:24;;;;;;;21.30;13.05;;;;;;;;;;4947036;28;20515;-80
2022/12/19 11:04:10;;;;;;;27.30;15.88;;;;;;;;;;4931002;29;20043;-81
2022/12/19 11:06:41;;;;;;;25.50;14.80;;;;;;;;;;4947862;29;20183;-80
2022/12/19 11:09:22;;;;;;;23.52;15.52;;;;;;;;;;4927625;29;20126;-81
2022/12/19 11:12:01;;;;;;;26.38;14.85;;;;;;;;;;4946113;28;20132;-81
2022/12/19 11:14:52;;;;;;;25.33;15.60;;;;;;;;;;4942245;29;20055;-81
2022/12/19 11:17:40;;;;;;;26.67;15.50;;;;;;;;;;4933864;29;20515;-80
2022/12/19 11:20:27;;;;;;;23.13;14.63;;;;;;;;;;4927777;29;21106;-82
2022/12/19 11:23:15;;;;;;;28.77;15.90;;;;;;;;;;4945318;29;20043;-81
2022/12/19 11:26:04;;;;;;;24.20;15.75;;;;;;;;;;4940802;29;20035;-81
2022/12/19 11:28:52;;;;;;;25.27;14.18;;;;;;;;;;4943812;28;20134;-80
2022/12/19 11:31:39;;;;;;;22.25;13.52;;;;;;;;;;4936133;29;20047;-81
2022/12/19 11:34:28;;;;;;;21.48;13.60;;;;;;;;;;4946852;29;20043;-81
2022/12/19 11:37:00;;;;;;;34.15;21.45;;;;;;;;;;4935651;29;20069;-82
2022/12/19 11:39:39;;;;;;;36.42;21.30;;;;;;;;;;4967691;28;20414;-81
2022/12/19 11:42:15;;;;;;;27.00;15.98;;;;;;;;;;4950983;28;20122;-82
2022/12/19 11:44:51;;;;;;;24.30;13.95;;;;;;;;;;4934128;29;20061;-81
2022/12/19 11:47:35;;;;;;;27.52;14.80;;;;;;;;;;4964753;28;20098;-81
2022/12/19 11:50:07;;;;;;;27.33;15.90;;;;;;;;;;4954149;29;20050;-81
2022/12/19 11:52:52;;;;;;;33.90;17.10;;;;;;;;;;4933212;29;20252;-81
2022/12/19 11:55:43;;;;;;;23.67;15.02;;;;;;;;;;4921301;29;20081;-81
2022/12/19 11:58:11;;;;;;;20.25;12.75;;;;;;;;;;4946815;29;20058;-81
2022/12/19 12:00:42;;;;;;;29.50;18.35;;;;;;;;;;4946308;28;20362;-81
2022/12/19 12:03:16;;;;;;;29.20;15.48;;;;;;;;;;4943801;29;20047;-80
2022/12/19 12:05:46;;;;;;;27.05;14.52;;;;;;;;;;4941255;28;20118;-81
2022/12/19 12:08:23;;;;;;;25.42;14.23;;;;;;;;;;4943350;28;20055;-81
2022/12/19 12:11:24;;;;;;;24.98;15.20;;;;;;;;;;4941377;28;20153;-81
2022/12/19 12:14:34;;;;;;;21.92;13.40;;;;;;;;;;4954244;28;20049;-81
2022/12/19 12:17:35;;;;;;;22.23;14.45;;;;;;;;;;4949934;28;20048;-81
2022/12/19 12:20:22;;;;;;;20.55;13.05;;;;;;;;;;4949309;29;20480;-81
2022/12/19 12:23:19;;;;;;;22.30;13.45;;;;;;;;;;4952746;28;20063;-81
2022/12/19 12:26:14;;;;;;;44.55;39.72;;;;;;;;;;4935283;29;20079;-82
2022/12/19 12:29:18;;;;;;;23.60;12.55;;;;;;;;;;4948106;29;20058;-82
2022/12/19 12:32:14;;;;;;;24.02;13.85;;;;;;;;;;4921943;29;20070;-81
2022/12/19 12:35:01;;;;;;;22.35;12.75;;;;;;;;;;4961670;28;20328;-82
2022/12/19 12:37:59;;;;;;;19.55;12.82;;;;;;;;;;4949367;28;20045;-82
2022/12/19 12:40:57;;;;;;;27.83;19.02;;;;;;;;;;4945769;28;20072;-81
2022/12/19 12:43:46;;;;;;;22.23;14.55;;;;;;;;;;4934412;29;20051;-82
2022/12/19 12:46:19;;;;;;;19.23;12.85;;;;;;;;;;4943266;28;20598;-82
2022/12/19 12:48:51;;;;;;;21.23;14.10;;;;;;;;;;4951404;29;20043;-83
2022/12/19 12:51:18;;;;;;;23.42;13.95;;;;;;;;;;4936240;29;20051;-82
2022/12/19 12:53:47;;;;;;;22.10;13.52;;;;;;;;;;4931602;29;20062;-82
2022/12/19 12:56:16;;;;;;;18.73;12.48;;;;;;;;;;4947312;29;20154;-82
2022/12/19 12:59:02;;;;;;;21.13;12.38;;;;;;;;;;4920050;29;20090;-82
2022/12/19 13:01:34;;;;;;;19.55;12.02;;;;;;;;;;4935578;29;20062;-82
2022/12/19 13:04:02;;;;;;;23.42;14.73;;;;;;;;;;4950924;29;20058;-82
2022/12/19 13:06:32;;;;;;;23.55;15.15;;;;;;;;;;4936826;29;20055;-81
2022/12/19 13:09:09;;;;;;;20.73;12.98;;;;;;;;;;4933150;29;20483;-81
2022/12/19 13:14:33;;;;;;;22.05;13.40;;;;;;;;;;4938917;28;20332;-81
2022/12/19 13:17:01;;;;;;;20.20;13.35;;;;;;;;;;4938107;28;20070;-82
2022/12/19 13:19:32;;;;;;;23.27;13.20;;;;;;;;;;4920591;29;20077;-82
2022/12/19 13:22:03;;;;;;;22.55;13.23;;;;;;;;;;4937140;28;20093;-82
2022/12/19 13:24:38;;;;;;;21.15;12.93;;;;;;;;;;4931642;28;20051;-82
2022/12/19 13:27:34;;;;;;;19.17;12.15;;;;;;;;;;4912685;29;20122;-82
2022/12/19 13:30:13;;;;;;;21.05;13.30;;;;;;;;;;4908493;29;20755;-81
2022/12/19 13:32:40;;;;;;;21.92;14.75;;;;;;;;;;4960168;28;20199;-82
2022/12/19 13:35:10;;;;;;;24.55;14.18;;;;;;;;;;4925951;28;20051;-83
2022/12/19 13:38:00;;;;;;;19.63;12.48;;;;;;;;;;4936835;29;20071;-80
2022/12/19 13:40:54;;;;;;;21.50;13.20;;;;;;;;;;4922585;28;20046;-83
2022/12/19 13:43:46;;;;;;;20.90;12.88;;;;;;;;;;4922394;29;20117;-82
2022/12/19 13:46:25;;;;;;;20.60;12.85;;;;;;;;;;4910659;29;20253;-82
2022/12/19 13:48:55;;;;;;;21.35;13.55;;;;;;;;;;4942641;29;20492;-82
2022/12/19 13:51:22;;;;;;;26.00;15.73;;;;;;;;;;4926820;28;20083;-81
2022/12/19 13:53:54;;;;;;;23.65;14.23;;;;;;;;;;4963781;23;20043;-83
2022/12/19 13:56:30;;;;;;;26.02;15.35;;;;;;;;;;4960466;28;20042;-82
2022/12/19 13:58:59;;;;;;;27.77;15.63;;;;;;;;;;4965078;28;20066;-82
2022/12/19 14:01:27;;;;;;;25.00;15.10;;;;;;;;;;4968058;28;20078;-83
2022/12/19 14:03:56;;;;;;;22.55;13.98;;;;;;;;;;4972790;28;20053;-83
2022/12/19 14:06:44;;;;;;;20.27;13.73;;;;;;;;;;4973448;28;20049;-81
2022/12/19 14:09:32;;;;;;;20.52;14.32;;;;;;;;;;4975865;28;20457;-89
2022/12/19 14:15:38;;;;;;;53.00;28.70;;;;;;;;;;4962344;28;20051;-81
2022/12/19 14:18:15;;;;;;;113.82;73.47;;;;;;;;;;4957910;28;20375;-83
2022/12/19 14:21:07;;;;;;;37.63;23.70;;;;;;;;;;4971212;28;20042;-84
2022/12/19 14:24:11;;;;;;;35.00;21.42;;;;;;;;;;4962581;28;20038;-83
2022/12/19 14:26:39;;;;;;;33.35;19.85;;;;;;;;;;4978769;28;20049;-83
2022/12/19 14:29:29;;;;;;;27.90;16.98;;;;;;;;;;4935214;29;20415;-83
2022/12/19 14:32:19;;;;;;;25.30;15.57;;;;;;;;;;4922135;29;20050;-83
2022/12/19 14:35:08;;;;;;;35.58;19.95;;;;;;;;;;4935267;29;20043;-84
2022/12/19 14:38:00;;;;;;;26.80;15.85;;;;;;;;;;4955125;28;20049;-84
2022/12/19 14:40:48;;;;;;;24.50;16.05;;;;;;;;;;4919619;28;20492;-83
2022/12/19 14:43:39;;;;;;;29.33;17.00;;;;;;;;;;4957777;28;20019;-82
2022/12/19 14:46:28;;;;;;;25.77;14.63;;;;;;;;;;4973579;28;20043;-83
2022/12/19 14:49:25;;;;;;;24.60;15.68;;;;;;;;;;4938536;28;20051;-84
2022/12/19 14:52:32;;;;;;;22.00;15.00;;;;;;;;;;4969960;28;20057;-83
2022/12/19 14:55:25;;;;;;;28.25;16.52;;;;;;;;;;4968795;28;20086;-83
2022/12/19 14:58:16;;;;;;;24.45;17.02;;;;;;;;;;4970496;28;20396;-83
2022/12/19 15:01:05;;;;;;;29.40;16.70;;;;;;;;;;4954750;28;20232;-83
2022/12/19 15:03:42;;;;;;;26.60;14.85;;;;;;;;;;4952876;28;20050;-82
2022/12/19 15:06:30;;;;;;;25.70;14.80;;;;;;;;;;4975442;28;20162;-83
2022/12/19 15:09:18;;;;;;;19.48;13.93;;;;;;;;;;4936566;29;20047;-83
2022/12/19 15:15:23;;;;;;;30.48;17.15;;;;;;;;;;4977033;28;20043;-83
2022/12/19 15:17:53;;;;;;;23.70;15.60;;;;;;;;;;4975602;28;20047;-83
2022/12/19 15:20:21;;;;;;;25.38;15.43;;;;;;;;;;4976326;28;20472;-84
2022/12/19 15:22:49;;;;;;;27.95;16.85;;;;;;;;;;4959846;28;20047;-84
2022/12/19 15:25:17;;;;;;;29.48;16.80;;;;;;;;;;4973225;28;20042;-82
2022/12/19 15:28:18;;;;;;;30.98;15.55;;;;;;;;;;4974057;28;20039;-84